sensor_id;sensor_type;location;lat;lon;timestamp;P1;durP1;ratioP1;P2;durP2;ratioP2
49978;SDS011;35869;50.990;6.962;2022-07-21T00:03:34;8.05;;;6.65;;
49978;SDS011;35869;50.990;6.962;2022-07-21T00:08:34;6.80;;;6.10;;
49978;SDS011;35869;50.990;6.962;2022-07-21T00:13:35;9.90;;;6.17;;
49978;SDS011;35869;50.990;6.962;2022-07-21T00:18:35;7.25;;;5.90;;
49978;SDS011;35869;50.990;6.962;2022-07-21T00:23:35;8.10;;;6.47;;
49978;SDS011;35869;50.990;6.962;2022-07-21T00:28:36;8.48;;;6.45;;
49978;SDS011;35869;50.990;6.962;2022-07-21T00:33:36;9.53;;;6.47;;
49978;SDS011;35869;50.990;6.962;2022-07-21T00:38:36;8.20;;;7.30;;
49978;SDS011;35869;50.990;6.962;2022-07-21T00:43:36;9.30;;;6.15;;
49978;SDS011;35869;50.990;6.962;2022-07-21T00:48:37;9.68;;;7.45;;
49978;SDS011;35869;50.990;6.962;2022-07-21T00:53:37;9.82;;;6.35;;
49978;SDS011;35869;50.990;6.962;2022-07-21T00:58:39;10.60;;;6.73;;
49978;SDS011;35869;50.990;6.962;2022-07-21T01:03:40;9.82;;;6.90;;
49978;SDS011;35869;50.990;6.962;2022-07-21T01:08:40;8.40;;;6.88;;
49978;SDS011;35869;50.990;6.962;2022-07-21T01:13:41;8.60;;;6.50;;
49978;SDS011;35869;50.990;6.962;2022-07-21T01:18:41;9.50;;;6.80;;
49978;SDS011;35869;50.990;6.962;2022-07-21T01:23:41;9.23;;;6.70;;
49978;SDS011;35869;50.990;6.962;2022-07-21T01:28:42;7.93;;;6.95;;
49978;SDS011;35869;50.990;6.962;2022-07-21T01:33:42;12.60;;;8.55;;
49978;SDS011;35869;50.990;6.962;2022-07-21T01:38:42;9.17;;;6.73;;
49978;SDS011;35869;50.990;6.962;2022-07-21T01:43:42;14.02;;;8.60;;
49978;SDS011;35869;50.990;6.962;2022-07-21T01:48:43;8.70;;;7.80;;
49978;SDS011;35869;50.990;6.962;2022-07-21T01:53:44;13.52;;;8.55;;
49978;SDS011;35869;50.990;6.962;2022-07-21T01:58:45;8.77;;;7.85;;
49978;SDS011;35869;50.990;6.962;2022-07-21T02:03:45;17.10;;;9.60;;
49978;SDS011;35869;50.990;6.962;2022-07-21T02:08:46;12.85;;;9.95;;
49978;SDS011;35869;50.990;6.962;2022-07-21T02:13:47;11.60;;;8.53;;
49978;SDS011;35869;50.990;6.962;2022-07-21T02:18:47;12.85;;;9.50;;
49978;SDS011;35869;50.990;6.962;2022-07-21T02:23:48;10.60;;;9.47;;
49978;SDS011;35869;50.990;6.962;2022-07-21T02:28:48;13.65;;;11.18;;
49978;SDS011;35869;50.990;6.962;2022-07-21T02:33:48;14.27;;;9.70;;
49978;SDS011;35869;50.990;6.962;2022-07-21T02:38:48;14.45;;;10.65;;
49978;SDS011;35869;50.990;6.962;2022-07-21T02:43:49;15.23;;;11.60;;
49978;SDS011;35869;50.990;6.962;2022-07-21T02:48:49;18.83;;;13.50;;
49978;SDS011;35869;50.990;6.962;2022-07-21T02:53:49;21.95;;;15.18;;
49978;SDS011;35869;50.990;6.962;2022-07-21T02:58:49;16.85;;;13.75;;
49978;SDS011;35869;50.990;6.962;2022-07-21T03:03:50;20.65;;;15.45;;
49978;SDS011;35869;50.990;6.962;2022-07-21T03:08:50;27.63;;;18.73;;
49978;SDS011;35869;50.990;6.962;2022-07-21T03:13:50;27.70;;;18.58;;
49978;SDS011;35869;50.990;6.962;2022-07-21T03:18:50;28.90;;;20.40;;
49978;SDS011;35869;50.990;6.962;2022-07-21T03:23:51;22.85;;;16.92;;
49978;SDS011;35869;50.990;6.962;2022-07-21T03:28:51;25.17;;;18.88;;
49978;SDS011;35869;50.990;6.962;2022-07-21T03:33:51;23.92;;;17.88;;
49978;SDS011;35869;50.990;6.962;2022-07-21T03:38:51;27.98;;;20.27;;
49978;SDS011;35869;50.990;6.962;2022-07-21T03:43:52;26.50;;;19.75;;
49978;SDS011;35869;50.990;6.962;2022-07-21T03:48:52;27.58;;;20.75;;
49978;SDS011;35869;50.990;6.962;2022-07-21T03:53:52;29.15;;;21.23;;
49978;SDS011;35869;50.990;6.962;2022-07-21T03:58:52;22.70;;;17.48;;
49978;SDS011;35869;50.990;6.962;2022-07-21T04:03:53;25.77;;;20.90;;
49978;SDS011;35869;50.990;6.962;2022-07-21T04:08:53;23.88;;;19.08;;
49978;SDS011;35869;50.990;6.962;2022-07-21T04:13:53;23.83;;;19.17;;
49978;SDS011;35869;50.990;6.962;2022-07-21T04:18:53;22.50;;;18.30;;
49978;SDS011;35869;50.990;6.962;2022-07-21T04:23:54;24.67;;;18.80;;
49978;SDS011;35869;50.990;6.962;2022-07-21T04:28:54;20.80;;;16.13;;
49978;SDS011;35869;50.990;6.962;2022-07-21T04:33:55;19.75;;;14.10;;
49978;SDS011;35869;50.990;6.962;2022-07-21T04:38:55;17.65;;;13.65;;
49978;SDS011;35869;50.990;6.962;2022-07-21T04:43:55;16.95;;;13.38;;
49978;SDS011;35869;50.990;6.962;2022-07-21T04:48:55;15.05;;;13.25;;
49978;SDS011;35869;50.990;6.962;2022-07-21T04:53:55;15.32;;;12.68;;
49978;SDS011;35869;50.990;6.962;2022-07-21T04:58:56;14.30;;;11.30;;
49978;SDS011;35869;50.990;6.962;2022-07-21T05:03:56;13.38;;;10.85;;
49978;SDS011;35869;50.990;6.962;2022-07-21T05:08:56;13.90;;;10.30;;
49978;SDS011;35869;50.990;6.962;2022-07-21T05:13:57;10.33;;;7.70;;
49978;SDS011;35869;50.990;6.962;2022-07-21T05:18:57;12.37;;;9.93;;
49978;SDS011;35869;50.990;6.962;2022-07-21T05:23:57;17.65;;;10.35;;
49978;SDS011;35869;50.990;6.962;2022-07-21T05:28:57;9.55;;;8.35;;
49978;SDS011;35869;50.990;6.962;2022-07-21T05:33:58;11.38;;;9.73;;
49978;SDS011;35869;50.990;6.962;2022-07-21T05:38:58;10.13;;;8.40;;
49978;SDS011;35869;50.990;6.962;2022-07-21T05:43:58;11.40;;;8.32;;
49978;SDS011;35869;50.990;6.962;2022-07-21T05:48:59;10.43;;;9.20;;
49978;SDS011;35869;50.990;6.962;2022-07-21T05:53:59;9.05;;;7.60;;
49978;SDS011;35869;50.990;6.962;2022-07-21T05:58:59;9.07;;;7.20;;
49978;SDS011;35869;50.990;6.962;2022-07-21T06:03:59;9.10;;;8.02;;
49978;SDS011;35869;50.990;6.962;2022-07-21T06:09:00;10.15;;;8.55;;
49978;SDS011;35869;50.990;6.962;2022-07-21T06:14:00;10.77;;;9.38;;
49978;SDS011;35869;50.990;6.962;2022-07-21T06:19:00;10.60;;;9.50;;
49978;SDS011;35869;50.990;6.962;2022-07-21T06:24:01;14.27;;;9.70;;
49978;SDS011;35869;50.990;6.962;2022-07-21T06:29:01;10.65;;;7.57;;
49978;SDS011;35869;50.990;6.962;2022-07-21T06:34:03;9.60;;;6.03;;
49978;SDS011;35869;50.990;6.962;2022-07-21T06:39:04;6.32;;;5.15;;
49978;SDS011;35869;50.990;6.962;2022-07-21T06:44:04;5.80;;;4.93;;
49978;SDS011;35869;50.990;6.962;2022-07-21T06:49:05;7.45;;;4.72;;
49978;SDS011;35869;50.990;6.962;2022-07-21T06:54:05;8.25;;;6.18;;
49978;SDS011;35869;50.990;6.962;2022-07-21T06:59:06;4.03;;;3.53;;
49978;SDS011;35869;50.990;6.962;2022-07-21T07:04:06;3.92;;;3.10;;
49978;SDS011;35869;50.990;6.962;2022-07-21T07:09:06;4.97;;;3.22;;
49978;SDS011;35869;50.990;6.962;2022-07-21T07:14:06;4.13;;;2.85;;
49978;SDS011;35869;50.990;6.962;2022-07-21T07:19:07;3.67;;;3.33;;
49978;SDS011;35869;50.990;6.962;2022-07-21T07:24:07;6.50;;;3.72;;
49978;SDS011;35869;50.990;6.962;2022-07-21T07:29:07;3.97;;;3.10;;
49978;SDS011;35869;50.990;6.962;2022-07-21T07:34:08;4.25;;;2.92;;
49978;SDS011;35869;50.990;6.962;2022-07-21T07:39:08;5.60;;;3.00;;
49978;SDS011;35869;50.990;6.962;2022-07-21T07:44:09;4.13;;;3.13;;
49978;SDS011;35869;50.990;6.962;2022-07-21T07:49:10;4.35;;;3.65;;
49978;SDS011;35869;50.990;6.962;2022-07-21T07:54:10;4.70;;;4.30;;
49978;SDS011;35869;50.990;6.962;2022-07-21T07:59:10;5.78;;;4.30;;
49978;SDS011;35869;50.990;6.962;2022-07-21T08:04:10;4.90;;;4.03;;
49978;SDS011;35869;50.990;6.962;2022-07-21T08:09:11;9.15;;;4.97;;
49978;SDS011;35869;50.990;6.962;2022-07-21T08:14:11;5.40;;;4.85;;
49978;SDS011;35869;50.990;6.962;2022-07-21T08:19:11;6.85;;;4.75;;
49978;SDS011;35869;50.990;6.962;2022-07-21T08:24:12;6.90;;;4.20;;
49978;SDS011;35869;50.990;6.962;2022-07-21T08:29:12;6.10;;;5.32;;
49978;SDS011;35869;50.990;6.962;2022-07-21T08:34:12;5.43;;;4.88;;
49978;SDS011;35869;50.990;6.962;2022-07-21T08:39:12;7.70;;;4.85;;
49978;SDS011;35869;50.990;6.962;2022-07-21T08:44:13;4.80;;;4.38;;
49978;SDS011;35869;50.990;6.962;2022-07-21T08:49:14;6.45;;;4.90;;
49978;SDS011;35869;50.990;6.962;2022-07-21T08:54:19;7.63;;;5.00;;
49978;SDS011;35869;50.990;6.962;2022-07-21T08:59:20;9.15;;;4.65;;
49978;SDS011;35869;50.990;6.962;2022-07-21T09:04:30;8.48;;;4.53;;
49978;SDS011;35869;50.990;6.962;2022-07-21T09:09:35;7.70;;;6.65;;
49978;SDS011;35869;50.990;6.962;2022-07-21T09:14:35;5.18;;;4.45;;
49978;SDS011;35869;50.990;6.962;2022-07-21T09:19:37;6.40;;;5.05;;
49978;SDS011;35869;50.990;6.962;2022-07-21T09:24:38;6.72;;;4.93;;
49978;SDS011;35869;50.990;6.962;2022-07-21T09:34:53;4.53;;;3.70;;
49978;SDS011;35869;50.990;6.962;2022-07-21T09:40:06;6.43;;;3.13;;
49978;SDS011;35869;50.990;6.962;2022-07-21T09:45:13;5.13;;;4.05;;
49978;SDS011;35869;50.990;6.962;2022-07-21T09:50:15;3.78;;;3.42;;
49978;SDS011;35869;50.990;6.962;2022-07-21T09:55:16;6.45;;;3.83;;
49978;SDS011;35869;50.990;6.962;2022-07-21T10:00:17;7.60;;;4.20;;
49978;SDS011;35869;50.990;6.962;2022-07-21T10:05:20;7.15;;;3.88;;
49978;SDS011;35869;50.990;6.962;2022-07-21T10:10:21;5.82;;;4.10;;
49978;SDS011;35869;50.990;6.962;2022-07-21T10:15:21;6.55;;;4.15;;
49978;SDS011;35869;50.990;6.962;2022-07-21T10:20:26;5.63;;;4.13;;
49978;SDS011;35869;50.990;6.962;2022-07-21T10:25:29;5.00;;;3.70;;
49978;SDS011;35869;50.990;6.962;2022-07-21T10:30:37;5.47;;;4.22;;
49978;SDS011;35869;50.990;6.962;2022-07-21T10:35:45;4.28;;;3.17;;
49978;SDS011;35869;50.990;6.962;2022-07-21T10:40:51;4.47;;;3.20;;
49978;SDS011;35869;50.990;6.962;2022-07-21T10:45:52;4.00;;;2.50;;
49978;SDS011;35869;50.990;6.962;2022-07-21T10:50:53;5.78;;;3.72;;
49978;SDS011;35869;50.990;6.962;2022-07-21T10:55:57;4.97;;;3.72;;
49978;SDS011;35869;50.990;6.962;2022-07-21T11:11:27;6.60;;;4.38;;
49978;SDS011;35869;50.990;6.962;2022-07-21T11:21:41;6.03;;;4.75;;
49978;SDS011;35869;50.990;6.962;2022-07-21T11:26:41;7.10;;;5.90;;
49978;SDS011;35869;50.990;6.962;2022-07-21T11:31:45;7.55;;;6.65;;
49978;SDS011;35869;50.990;6.962;2022-07-21T11:36:46;8.63;;;6.07;;
49978;SDS011;35869;50.990;6.962;2022-07-21T11:41:47;12.60;;;7.45;;
49978;SDS011;35869;50.990;6.962;2022-07-21T11:46:51;9.15;;;7.72;;
49978;SDS011;35869;50.990;6.962;2022-07-21T11:51:54;11.43;;;8.07;;
49978;SDS011;35869;50.990;6.962;2022-07-21T11:56:58;12.50;;;8.63;;
49978;SDS011;35869;50.990;6.962;2022-07-21T12:02:01;12.68;;;7.93;;
49978;SDS011;35869;50.990;6.962;2022-07-21T12:07:06;12.93;;;9.48;;
49978;SDS011;35869;50.990;6.962;2022-07-21T12:12:11;10.55;;;8.73;;
49978;SDS011;35869;50.990;6.962;2022-07-21T12:17:12;12.55;;;9.95;;
49978;SDS011;35869;50.990;6.962;2022-07-21T12:22:12;13.40;;;11.57;;
49978;SDS011;35869;50.990;6.962;2022-07-21T12:27:13;12.60;;;10.38;;
49978;SDS011;35869;50.990;6.962;2022-07-21T12:32:14;15.03;;;11.27;;
49978;SDS011;35869;50.990;6.962;2022-07-21T12:37:15;13.70;;;11.50;;
49978;SDS011;35869;50.990;6.962;2022-07-21T12:42:31;14.10;;;10.48;;
49978;SDS011;35869;50.990;6.962;2022-07-21T12:47:35;13.48;;;11.13;;
49978;SDS011;35869;50.990;6.962;2022-07-21T12:52:35;14.25;;;10.95;;
49978;SDS011;35869;50.990;6.962;2022-07-21T12:57:35;16.50;;;12.80;;
49978;SDS011;35869;50.990;6.962;2022-07-21T13:02:45;19.88;;;13.75;;
49978;SDS011;35869;50.990;6.962;2022-07-21T13:07:53;17.55;;;12.40;;
49978;SDS011;35869;50.990;6.962;2022-07-21T13:12:54;15.20;;;12.70;;
49978;SDS011;35869;50.990;6.962;2022-07-21T13:17:54;21.23;;;15.02;;
49978;SDS011;35869;50.990;6.962;2022-07-21T13:22:55;17.13;;;13.93;;
49978;SDS011;35869;50.990;6.962;2022-07-21T13:27:55;17.45;;;14.20;;
49978;SDS011;35869;50.990;6.962;2022-07-21T13:32:55;16.70;;;14.15;;
49978;SDS011;35869;50.990;6.962;2022-07-21T13:37:56;15.87;;;12.70;;
49978;SDS011;35869;50.990;6.962;2022-07-21T13:42:58;18.25;;;14.45;;
49978;SDS011;35869;50.990;6.962;2022-07-21T13:47:58;14.18;;;11.73;;
49978;SDS011;35869;50.990;6.962;2022-07-21T13:52:58;15.82;;;8.90;;
49978;SDS011;35869;50.990;6.962;2022-07-21T13:57:58;11.05;;;9.95;;
49978;SDS011;35869;50.990;6.962;2022-07-21T14:02:59;6.87;;;6.10;;
49978;SDS011;35869;50.990;6.962;2022-07-21T14:07:59;6.88;;;5.72;;
49978;SDS011;35869;50.990;6.962;2022-07-21T14:12:59;7.65;;;5.88;;
49978;SDS011;35869;50.990;6.962;2022-07-21T14:18:00;8.10;;;6.75;;
49978;SDS011;35869;50.990;6.962;2022-07-21T14:23:00;7.68;;;6.22;;
49978;SDS011;35869;50.990;6.962;2022-07-21T14:28:00;7.82;;;7.03;;
49978;SDS011;35869;50.990;6.962;2022-07-21T14:33:01;8.82;;;7.47;;
49978;SDS011;35869;50.990;6.962;2022-07-21T14:38:01;11.23;;;8.23;;
49978;SDS011;35869;50.990;6.962;2022-07-21T14:43:02;10.88;;;8.15;;
49978;SDS011;35869;50.990;6.962;2022-07-21T14:48:03;12.48;;;9.38;;
49978;SDS011;35869;50.990;6.962;2022-07-21T14:53:04;14.40;;;10.20;;
49978;SDS011;35869;50.990;6.962;2022-07-21T14:58:04;10.15;;;8.77;;
49978;SDS011;35869;50.990;6.962;2022-07-21T15:03:04;9.50;;;7.90;;
49978;SDS011;35869;50.990;6.962;2022-07-21T15:08:04;9.27;;;7.20;;
49978;SDS011;35869;50.990;6.962;2022-07-21T15:13:05;9.55;;;8.02;;
49978;SDS011;35869;50.990;6.962;2022-07-21T15:18:05;9.70;;;7.28;;
49978;SDS011;35869;50.990;6.962;2022-07-21T15:23:05;8.57;;;7.57;;
49978;SDS011;35869;50.990;6.962;2022-07-21T15:28:06;12.00;;;7.05;;
49978;SDS011;35869;50.990;6.962;2022-07-21T15:33:06;8.23;;;7.43;;
49978;SDS011;35869;50.990;6.962;2022-07-21T15:38:06;8.25;;;7.07;;
49978;SDS011;35869;50.990;6.962;2022-07-21T15:43:07;8.18;;;6.63;;
49978;SDS011;35869;50.990;6.962;2022-07-21T15:48:07;7.10;;;6.32;;
49978;SDS011;35869;50.990;6.962;2022-07-21T15:53:07;10.15;;;6.43;;
49978;SDS011;35869;50.990;6.962;2022-07-21T15:58:09;6.82;;;5.32;;
49978;SDS011;35869;50.990;6.962;2022-07-21T16:03:09;5.15;;;4.57;;
49978;SDS011;35869;50.990;6.962;2022-07-21T16:08:09;8.68;;;5.05;;
49978;SDS011;35869;50.990;6.962;2022-07-21T16:13:10;5.72;;;5.07;;
49978;SDS011;35869;50.990;6.962;2022-07-21T16:18:10;7.40;;;5.97;;
49978;SDS011;35869;50.990;6.962;2022-07-21T16:23:10;7.63;;;6.03;;
49978;SDS011;35869;50.990;6.962;2022-07-21T16:28:11;10.23;;;6.90;;
49978;SDS011;35869;50.990;6.962;2022-07-21T16:33:11;7.88;;;6.35;;
49978;SDS011;35869;50.990;6.962;2022-07-21T16:38:11;8.85;;;5.22;;
49978;SDS011;35869;50.990;6.962;2022-07-21T16:43:11;5.82;;;4.40;;
49978;SDS011;35869;50.990;6.962;2022-07-21T16:48:12;6.20;;;5.35;;
49978;SDS011;35869;50.990;6.962;2022-07-21T16:53:12;5.83;;;5.10;;
49978;SDS011;35869;50.990;6.962;2022-07-21T16:58:13;6.50;;;5.77;;
49978;SDS011;35869;50.990;6.962;2022-07-21T17:03:13;7.60;;;6.88;;
49978;SDS011;35869;50.990;6.962;2022-07-21T17:08:13;11.48;;;6.07;;
49978;SDS011;35869;50.990;6.962;2022-07-21T17:13:14;8.68;;;7.00;;
49978;SDS011;35869;50.990;6.962;2022-07-21T17:18:14;8.80;;;7.30;;
49978;SDS011;35869;50.990;6.962;2022-07-21T17:23:15;9.50;;;7.70;;
49978;SDS011;35869;50.990;6.962;2022-07-21T17:28:15;7.70;;;6.90;;
49978;SDS011;35869;50.990;6.962;2022-07-21T17:33:16;8.20;;;6.03;;
49978;SDS011;35869;50.990;6.962;2022-07-21T17:38:17;8.65;;;6.32;;
49978;SDS011;35869;50.990;6.962;2022-07-21T17:43:18;12.48;;;7.63;;
49978;SDS011;35869;50.990;6.962;2022-07-21T17:48:19;10.40;;;7.73;;
49978;SDS011;35869;50.990;6.962;2022-07-21T17:53:20;9.85;;;7.80;;
49978;SDS011;35869;50.990;6.962;2022-07-21T17:58:20;13.27;;;8.33;;
49978;SDS011;35869;50.990;6.962;2022-07-21T18:03:20;8.75;;;7.53;;
49978;SDS011;35869;50.990;6.962;2022-07-21T18:08:21;10.43;;;8.25;;
49978;SDS011;35869;50.990;6.962;2022-07-21T18:13:21;11.63;;;8.65;;
49978;SDS011;35869;50.990;6.962;2022-07-21T18:18:22;11.10;;;8.60;;
49978;SDS011;35869;50.990;6.962;2022-07-21T18:23:22;11.73;;;8.70;;
49978;SDS011;35869;50.990;6.962;2022-07-21T18:28:23;14.70;;;8.40;;
49978;SDS011;35869;50.990;6.962;2022-07-21T18:33:23;8.75;;;7.57;;
49978;SDS011;35869;50.990;6.962;2022-07-21T18:38:24;12.53;;;8.67;;
49978;SDS011;35869;50.990;6.962;2022-07-21T18:43:24;13.27;;;9.52;;
49978;SDS011;35869;50.990;6.962;2022-07-21T18:48:24;14.30;;;8.27;;
49978;SDS011;35869;50.990;6.962;2022-07-21T18:53:24;14.48;;;8.50;;
49978;SDS011;35869;50.990;6.962;2022-07-21T18:58:25;9.63;;;7.10;;
49978;SDS011;35869;50.990;6.962;2022-07-21T19:03:25;13.02;;;7.47;;
49978;SDS011;35869;50.990;6.962;2022-07-21T19:08:25;9.43;;;7.53;;
49978;SDS011;35869;50.990;6.962;2022-07-21T19:13:26;20.63;;;7.27;;
49978;SDS011;35869;50.990;6.962;2022-07-21T19:18:26;11.77;;;6.40;;
49978;SDS011;35869;50.990;6.962;2022-07-21T19:23:26;10.20;;;6.50;;
49978;SDS011;35869;50.990;6.962;2022-07-21T19:28:26;7.70;;;5.60;;
49978;SDS011;35869;50.990;6.962;2022-07-21T19:33:27;10.60;;;6.13;;
49978;SDS011;35869;50.990;6.962;2022-07-21T19:38:27;8.23;;;4.63;;
49978;SDS011;35869;50.990;6.962;2022-07-21T19:43:27;7.43;;;4.50;;
49978;SDS011;35869;50.990;6.962;2022-07-21T19:48:27;7.30;;;3.95;;
49978;SDS011;35869;50.990;6.962;2022-07-21T19:53:28;7.45;;;5.03;;
49978;SDS011;35869;50.990;6.962;2022-07-21T19:58:29;6.87;;;4.03;;
49978;SDS011;35869;50.990;6.962;2022-07-21T20:03:30;7.57;;;4.90;;
49978;SDS011;35869;50.990;6.962;2022-07-21T20:08:30;8.83;;;4.53;;
49978;SDS011;35869;50.990;6.962;2022-07-21T20:13:31;8.05;;;4.22;;
49978;SDS011;35869;50.990;6.962;2022-07-21T20:18:31;6.13;;;3.70;;
49978;SDS011;35869;50.990;6.962;2022-07-21T20:23:31;9.27;;;4.37;;
49978;SDS011;35869;50.990;6.962;2022-07-21T20:28:32;4.97;;;3.77;;
49978;SDS011;35869;50.990;6.962;2022-07-21T20:33:32;7.17;;;4.07;;
49978;SDS011;35869;50.990;6.962;2022-07-21T20:38:32;6.18;;;4.20;;
49978;SDS011;35869;50.990;6.962;2022-07-21T20:43:32;6.32;;;4.22;;
49978;SDS011;35869;50.990;6.962;2022-07-21T20:48:33;6.85;;;4.75;;
49978;SDS011;35869;50.990;6.962;2022-07-21T20:53:33;6.33;;;4.60;;
49978;SDS011;35869;50.990;6.962;2022-07-21T20:58:33;5.77;;;4.67;;
49978;SDS011;35869;50.990;6.962;2022-07-21T21:03:34;6.63;;;5.00;;
49978;SDS011;35869;50.990;6.962;2022-07-21T21:08:34;7.63;;;5.57;;
49978;SDS011;35869;50.990;6.962;2022-07-21T21:13:35;6.87;;;5.27;;
49978;SDS011;35869;50.990;6.962;2022-07-21T21:18:35;16.60;;;5.87;;
49978;SDS011;35869;50.990;6.962;2022-07-21T21:23:35;12.63;;;6.87;;
49978;SDS011;35869;50.990;6.962;2022-07-21T21:28:36;11.37;;;6.43;;
49978;SDS011;35869;50.990;6.962;2022-07-21T21:33:36;9.73;;;6.77;;
49978;SDS011;35869;50.990;6.962;2022-07-21T21:38:36;10.93;;;7.13;;
49978;SDS011;35869;50.990;6.962;2022-07-21T21:43:37;14.80;;;8.80;;
49978;SDS011;35869;50.990;6.962;2022-07-21T21:48:37;13.17;;;8.40;;
49978;SDS011;35869;50.990;6.962;2022-07-21T21:53:38;11.38;;;7.95;;
49978;SDS011;35869;50.990;6.962;2022-07-21T21:58:38;9.85;;;8.15;;
49978;SDS011;35869;50.990;6.962;2022-07-21T22:03:39;11.63;;;8.43;;
49978;SDS011;35869;50.990;6.962;2022-07-21T22:08:39;11.90;;;8.32;;
49978;SDS011;35869;50.990;6.962;2022-07-21T22:13:39;15.50;;;7.90;;
49978;SDS011;35869;50.990;6.962;2022-07-21T22:18:40;14.43;;;8.82;;
49978;SDS011;35869;50.990;6.962;2022-07-21T22:23:41;12.73;;;8.15;;
49978;SDS011;35869;50.990;6.962;2022-07-21T22:28:41;10.07;;;7.82;;
49978;SDS011;35869;50.990;6.962;2022-07-21T22:33:43;14.05;;;8.82;;
49978;SDS011;35869;50.990;6.962;2022-07-21T22:38:44;9.75;;;7.88;;
49978;SDS011;35869;50.990;6.962;2022-07-21T22:43:44;13.70;;;7.88;;
49978;SDS011;35869;50.990;6.962;2022-07-21T22:48:45;11.77;;;7.40;;
49978;SDS011;35869;50.990;6.962;2022-07-21T22:53:45;12.90;;;8.65;;
49978;SDS011;35869;50.990;6.962;2022-07-21T22:58:45;12.45;;;8.70;;
49978;SDS011;35869;50.990;6.962;2022-07-21T23:03:45;15.83;;;9.00;;
49978;SDS011;35869;50.990;6.962;2022-07-21T23:08:46;12.90;;;8.73;;
49978;SDS011;35869;50.990;6.962;2022-07-21T23:13:46;16.60;;;8.77;;
49978;SDS011;35869;50.990;6.962;2022-07-21T23:18:46;14.97;;;8.57;;
49978;SDS011;35869;50.990;6.962;2022-07-21T23:23:46;16.20;;;9.20;;
49978;SDS011;35869;50.990;6.962;2022-07-21T23:28:47;13.32;;;8.30;;
49978;SDS011;35869;50.990;6.962;2022-07-21T23:33:47;12.07;;;8.75;;
49978;SDS011;35869;50.990;6.962;2022-07-21T23:38:47;16.27;;;8.93;;
49978;SDS011;35869;50.990;6.962;2022-07-21T23:43:47;12.73;;;7.82;;
49978;SDS011;35869;50.990;6.962;2022-07-21T23:48:48;13.10;;;8.48;;
49978;SDS011;35869;50.990;6.962;2022-07-21T23:53:48;13.63;;;8.77;;
49978;SDS011;35869;50.990;6.962;2022-07-21T23:58:48;13.10;;;7.60;;
